Time;durP1;ratioP1;P1;durP2;ratioP2;P2;SDS_P1;SDS_P2;PMS_P1;PMS_P2;Temp;Humidity;BMP_temperature;BMP_pressure;BME280_temperature;BME280_humidity;BME280_pressure;Samples;Min_cycle;Max_cycle;Signal;HPM_P1;HPM_P2
2022/10/15 00:00:07;;;;;;;0.40;0.40;;;;;;;14.92;72.05;100808.34;5057080;28;20043;-79
2022/10/15 00:02:33;;;;;;;0.57;0.57;;;;;;;14.90;72.21;100808.38;5057698;28;20037;-79
2022/10/15 00:04:59;;;;;;;1.02;0.65;;;;;;;14.85;72.24;100802.34;5056619;28;20033;-80
2022/10/15 00:07:27;;;;;;;0.10;0.10;;;;;;;14.83;72.28;100798.91;5058179;28;20036;-80
2022/10/15 00:09:56;;;;;;;0.17;0.17;;;;;;;14.79;72.42;100795.47;5055646;28;20111;-79
2022/10/15 00:12:22;;;;;;;0.55;0.55;;;;;;;14.75;72.24;100804.50;5057759;28;20025;-79
2022/10/15 00:14:48;;;;;;;0.10;0.10;;;;;;;14.74;72.05;100801.91;5058968;28;20120;-79
2022/10/15 00:17:14;;;;;;;0.20;0.20;;;;;;;14.71;72.41;100794.91;5053234;28;20036;-80
2022/10/15 00:19:40;;;;;;;0.10;0.10;;;;;;;14.72;71.99;100802.81;5050277;28;20029;-79
2022/10/15 00:22:06;;;;;;;0.70;0.70;;;;;;;14.73;72.18;100795.72;5053995;28;20028;-80
2022/10/15 00:24:32;;;;;;;2.35;2.15;;;;;;;14.74;72.42;100802.75;5054630;28;20029;-79
2022/10/15 00:26:58;;;;;;;0.10;0.10;;;;;;;14.75;72.14;100793.84;5054128;28;20040;-78
2022/10/15 00:29:24;;;;;;;0.20;0.20;;;;;;;14.77;72.08;100802.66;5049356;28;20051;-80
2022/10/15 00:31:51;;;;;;;0.20;0.20;;;;;;;14.78;72.43;100799.06;5037033;28;20048;-80
2022/10/15 00:34:17;;;;;;;0.30;0.30;;;;;;;14.80;72.51;100799.84;5048211;28;20040;-80
2022/10/15 00:36:43;;;;;;;1.88;1.77;;;;;;;14.82;72.62;100797.16;5051653;28;20036;-80
2022/10/15 00:39:10;;;;;;;0.52;0.43;;;;;;;14.83;72.58;100796.25;5049912;28;20036;-80
2022/10/15 00:41:42;;;;;;;0.30;0.30;;;;;;;14.83;72.86;100797.09;5046596;28;20036;-79
2022/10/15 00:47:15;;;;;;;0.20;0.20;;;;;;;14.90;72.69;100791.53;5098653;27;20211;-80
2022/10/15 00:49:48;;;;;;;0.10;0.10;;;;;;;14.87;72.98;100785.38;5065023;28;20116;-80
2022/10/15 00:52:22;;;;;;;0.10;0.10;;;;;;;14.88;72.89;100779.09;5052661;28;20064;-80
2022/10/15 00:54:57;;;;;;;15.27;4.03;;;;;;;14.90;72.91;100791.53;5055389;28;20290;-80
2022/10/15 00:57:24;;;;;;;0.40;0.40;;;;;;;14.88;73.40;100792.44;5068872;28;20043;-79
2022/10/15 00:59:58;;;;;;;0.40;0.40;;;;;;;14.90;73.22;100794.19;5054598;28;20475;-80
2022/10/15 01:02:24;;;;;;;0.20;0.20;;;;;;;14.91;72.94;100782.59;5058477;28;20033;-80
2022/10/15 01:04:52;;;;;;;1.02;1.00;;;;;;;14.92;73.03;100779.84;5065659;28;20036;-79
2022/10/15 01:07:18;;;;;;;1.80;1.70;;;;;;;14.93;73.17;100778.94;5064036;28;20601;-80
2022/10/15 01:09:45;;;;;;;0.10;0.10;;;;;;;14.93;73.34;100780.72;5061879;28;20040;-80
2022/10/15 01:12:21;;;;;;;1.75;0.95;;;;;;;14.95;73.05;100778.88;5056272;28;20056;-79
2022/10/15 01:15:04;;;;;;;0.10;0.10;;;;;;;15.00;72.87;100772.44;5057774;28;20024;-80
2022/10/15 01:24:12;;;;;;;1.20;0.68;;;;;;;15.03;73.25;100766.97;5078943;27;20162;-82
2022/10/15 01:27:14;;;;;;;0.10;0.10;;;;;;;15.09;72.83;100760.53;5058521;28;20037;-81
2022/10/15 01:29:57;;;;;;;0.75;0.75;;;;;;;15.10;73.02;100754.22;5052300;28;20025;-81
2022/10/15 01:32:26;;;;;;;0.10;0.10;;;;;;;15.09;72.96;100752.53;5059285;28;20036;-81
2022/10/15 01:35:20;;;;;;;0.10;0.10;;;;;;;15.10;73.13;100743.56;5061280;28;20033;-82
2022/10/15 01:40:31;;;;;;;0.10;0.10;;;;;;;15.03;72.99;100747.44;5062040;28;20225;-82
2022/10/15 01:43:02;;;;;;;0.32;0.32;;;;;;;14.98;73.02;100746.75;5031099;28;20030;-82
2022/10/15 01:45:36;;;;;;;0.47;0.47;;;;;;;14.95;73.07;100741.53;5025928;28;20044;-82
2022/10/15 01:48:06;;;;;;;0.55;0.55;;;;;;;14.91;73.48;100750.59;5026533;28;20568;-81
2022/10/15 01:50:36;;;;;;;0.30;0.30;;;;;;;14.88;73.25;100739.09;5026180;28;20403;-81
2022/10/15 01:53:06;;;;;;;0.43;0.43;;;;;;;14.88;73.10;100739.09;5014987;28;20029;-81
2022/10/15 01:55:33;;;;;;;0.28;0.28;;;;;;;14.85;73.27;100747.22;5024380;28;20030;-81
2022/10/15 01:58:00;;;;;;;0.70;0.60;;;;;;;14.82;73.34;100738.47;5029501;28;20024;-82
2022/10/15 02:00:26;;;;;;;3.40;1.30;;;;;;;14.76;73.30;100739.56;5021992;28;20044;-81
2022/10/15 02:02:57;;;;;;;1.40;0.88;;;;;;;14.71;73.38;100730.88;5028794;28;20096;-81
2022/10/15 02:05:28;;;;;;;0.63;0.63;;;;;;;14.69;73.41;100736.28;5029770;28;20103;-81
2022/10/15 02:08:09;;;;;;;0.93;0.93;;;;;;;14.67;73.84;100731.94;5027211;28;20026;-81
2022/10/15 02:10:54;;;;;;;0.65;0.65;;;;;;;14.69;73.25;100730.06;5027997;28;20481;-81
2022/10/15 02:16:20;;;;;;;7.28;1.15;;;;;;;14.68;73.61;100723.88;5112476;27;21183;-80
2022/10/15 02:21:34;;;;;;;0.73;0.63;;;;;;;14.57;74.12;100716.25;5151319;27;105695;-81
2022/10/15 02:26:43;;;;;;;1.85;0.90;;;;;;;14.50;73.80;100712.09;5151972;27;266571;-79
2022/10/15 02:29:14;;;;;;;0.20;0.20;;;;;;;14.46;73.99;100705.16;5137509;27;20032;-79
2022/10/15 02:31:44;;;;;;;0.85;0.85;;;;;;;14.42;73.91;100700.88;5130491;27;20027;-79
2022/10/15 02:34:14;;;;;;;0.40;0.40;;;;;;;14.38;74.05;100694.78;5145645;27;20023;-79
2022/10/15 02:36:41;;;;;;;1.52;0.38;;;;;;;14.34;74.29;100697.63;5140063;27;21108;-79
2022/10/15 02:39:11;;;;;;;0.40;0.40;;;;;;;14.29;74.71;100695.13;5149930;27;20053;-79
2022/10/15 02:41:38;;;;;;;7.35;1.23;;;;;;;14.30;74.45;100685.34;5145998;27;20038;-79
2022/10/15 02:44:04;;;;;;;0.65;0.65;;;;;;;14.28;74.61;100685.41;5148731;27;20031;-79
2022/10/15 02:46:30;;;;;;;0.32;0.32;;;;;;;14.24;74.99;100676.66;5138211;27;20031;-79
2022/10/15 02:48:57;;;;;;;0.30;0.30;;;;;;;14.26;74.13;100679.25;5139940;27;20066;-79
2022/10/15 02:51:23;;;;;;;0.43;0.43;;;;;;;14.21;74.52;100668.75;5136282;27;20023;-79
2022/10/15 02:53:49;;;;;;;0.98;0.80;;;;;;;14.18;74.63;100671.56;5138571;27;20087;-79
2022/10/15 02:56:15;;;;;;;1.05;1.05;;;;;;;14.18;74.29;100678.66;5145740;27;20021;-79
2022/10/15 02:58:41;;;;;;;0.30;0.30;;;;;;;14.15;74.36;100677.00;5140640;27;20058;-79
2022/10/15 03:01:08;;;;;;;0.10;0.10;;;;;;;14.11;74.45;100675.38;5137575;27;20031;-79
2022/10/15 03:03:34;;;;;;;0.95;0.32;;;;;;;14.08;74.36;100672.81;5143148;27;20031;-78
2022/10/15 03:06:00;;;;;;;0.10;0.10;;;;;;;14.05;74.53;100664.94;5140874;27;20064;-79
2022/10/15 03:08:26;;;;;;;1.10;0.55;;;;;;;14.01;74.49;100658.00;5144078;27;20042;-79
2022/10/15 03:10:52;;;;;;;0.60;0.60;;;;;;;13.99;74.72;100662.50;5141304;27;20037;-78
2022/10/15 03:13:18;;;;;;;0.63;0.63;;;;;;;13.97;74.33;100662.56;5136465;27;20023;-79
2022/10/15 03:15:44;;;;;;;0.40;0.40;;;;;;;13.93;74.55;100652.94;5139453;27;20024;-79
2022/10/15 03:18:10;;;;;;;0.30;0.30;;;;;;;13.90;74.67;100661.91;5145103;27;20139;-78
2022/10/15 03:20:36;;;;;;;0.68;0.68;;;;;;;13.88;74.51;100661.13;5147707;27;20055;-78
2022/10/15 03:23:03;;;;;;;0.20;0.20;;;;;;;13.88;74.98;100660.25;5150640;27;20023;-78
2022/10/15 03:25:29;;;;;;;0.13;0.13;;;;;;;13.85;74.56;100663.88;5150237;27;20503;-78
2022/10/15 03:27:55;;;;;;;1.38;1.17;;;;;;;13.85;74.36;100663.88;5139553;27;20092;-78
2022/10/15 03:30:22;;;;;;;0.20;0.20;;;;;;;13.80;75.11;100657.84;5147713;27;20102;-78
2022/10/15 03:32:48;;;;;;;0.10;0.10;;;;;;;13.79;75.38;100657.91;5135708;27;20034;-78
2022/10/15 03:35:14;;;;;;;0.30;0.30;;;;;;;13.81;75.41;100656.09;5152782;27;20106;-79
2022/10/15 03:37:40;;;;;;;0.00;0.00;;;;;;;13.79;75.88;100664.09;5129744;27;20024;-79
2022/10/15 03:40:07;;;;;;;0.47;0.45;;;;;;;13.79;75.88;100658.78;5127735;27;20027;-79
2022/10/15 03:42:33;;;;;;;0.55;0.55;;;;;;;13.77;76.00;100659.75;5130211;27;20036;-79
2022/10/15 03:44:59;;;;;;;0.65;0.65;;;;;;;13.79;75.51;100656.13;5130054;27;20485;-80
2022/10/15 03:47:25;;;;;;;0.63;0.63;;;;;;;13.79;76.05;100658.78;5134911;27;20019;-79
2022/10/15 03:49:51;;;;;;;1.00;1.00;;;;;;;13.76;75.19;100664.22;5144178;27;20062;-79
2022/10/15 03:52:17;;;;;;;0.57;0.57;;;;;;;13.76;76.24;100664.22;5139661;27;20031;-79
2022/10/15 03:54:43;;;;;;;0.50;0.50;;;;;;;13.76;76.15;100653.59;5128350;27;20031;-79
2022/10/15 03:57:09;;;;;;;0.20;0.20;;;;;;;13.76;76.41;100666.91;5128953;27;20046;-79
2022/10/15 03:59:35;;;;;;;0.95;0.77;;;;;;;13.74;76.09;100672.28;5129910;27;20035;-79
2022/10/15 04:02:02;;;;;;;0.47;0.47;;;;;;;13.74;75.89;100668.72;5124052;27;20106;-79
2022/10/15 04:04:28;;;;;;;0.25;0.25;;;;;;;13.71;75.90;100671.53;5119708;27;20392;-80
2022/10/15 04:06:55;;;;;;;0.10;0.10;;;;;;;13.69;75.58;100673.34;5128689;27;20051;-79
2022/10/15 04:09:21;;;;;;;0.20;0.20;;;;;;;13.68;75.58;100677.81;5118626;27;20023;-78
2022/10/15 04:11:47;;;;;;;0.10;0.10;;;;;;;13.68;75.83;100687.59;5123617;27;20031;-79
2022/10/15 04:14:13;;;;;;;0.10;0.10;;;;;;;13.68;75.86;100684.94;5126721;27;20015;-79
2022/10/15 04:16:39;;;;;;;0.20;0.20;;;;;;;13.69;76.09;100689.34;5121485;27;20092;-78
2022/10/15 04:19:05;;;;;;;0.10;0.10;;;;;;;13.74;76.06;100687.38;5123097;27;20059;-78
2022/10/15 04:21:32;;;;;;;0.20;0.20;;;;;;;13.76;75.93;100685.53;5127264;27;20039;-78
2022/10/15 04:23:58;;;;;;;0.10;0.10;;;;;;;13.81;75.82;100694.22;5121953;27;20032;-77
2022/10/15 04:26:24;;;;;;;0.90;0.90;;;;;;;13.85;76.00;100685.19;5117869;27;20027;-78
2022/10/15 04:28:50;;;;;;;0.15;0.15;;;;;;;13.89;76.13;100689.50;5118154;27;20507;-78
2022/10/15 04:31:16;;;;;;;0.30;0.30;;;;;;;13.94;75.96;100677.78;5123436;27;20027;-78
2022/10/15 04:33:42;;;;;;;0.10;0.10;;;;;;;13.97;76.03;100685.66;5127335;27;20046;-79
2022/10/15 04:36:12;;;;;;;0.30;0.30;;;;;;;14.01;76.34;100676.66;5125838;27;20080;-78
2022/10/15 04:38:38;;;;;;;1.75;1.65;;;;;;;14.02;76.01;100665.94;5124416;27;20027;-78
2022/10/15 04:41:06;;;;;;;0.82;0.82;;;;;;;14.06;76.01;100680.00;5120621;27;20126;-79
2022/10/15 04:43:33;;;;;;;0.10;0.10;;;;;;;14.10;76.16;100668.31;5126940;27;20093;-79
2022/10/15 04:46:00;;;;;;;1.55;1.23;;;;;;;14.10;76.17;100668.31;5124546;27;20494;-79
2022/10/15 04:48:28;;;;;;;0.73;0.73;;;;;;;14.14;75.74;100669.91;5126759;27;20039;-79
2022/10/15 04:50:55;;;;;;;0.10;0.10;;;;;;;14.15;75.86;100671.66;5128502;27;20050;-78
2022/10/15 04:53:21;;;;;;;2.72;2.05;;;;;;;14.17;75.84;100672.47;5118796;27;20038;-78
2022/10/15 04:55:47;;;;;;;0.40;0.40;;;;;;;14.20;76.04;100668.84;5134546;27;20102;-79
2022/10/15 04:58:13;;;;;;;0.30;0.30;;;;;;;14.22;75.89;100672.31;5122319;27;20030;-79
2022/10/15 05:00:40;;;;;;;0.10;0.10;;;;;;;14.26;75.79;100675.75;5127415;27;20121;-78
2022/10/15 05:03:06;;;;;;;1.05;1.05;;;;;;;14.29;75.92;100668.47;5125297;27;20425;-78
2022/10/15 05:05:32;;;;;;;0.25;0.25;;;;;;;14.31;76.06;100666.63;5127645;27;20069;-80
2022/10/15 05:08:00;;;;;;;0.17;0.17;;;;;;;14.36;76.01;100674.44;5120650;27;20031;-79
2022/10/15 05:10:29;;;;;;;0.30;0.30;;;;;;;14.39;76.00;100666.31;5119713;27;20042;-78
2022/10/15 05:12:55;;;;;;;1.85;1.75;;;;;;;14.42;76.23;100662.66;5118059;27;20031;-78
2022/10/15 05:15:21;;;;;;;0.63;0.43;;;;;;;14.43;75.90;100659.97;5122729;27;20019;-79
2022/10/15 05:17:47;;;;;;;0.10;0.10;;;;;;;14.50;76.23;100672.09;5123028;27;20063;-78
2022/10/15 05:20:13;;;;;;;0.20;0.20;;;;;;;14.53;76.22;100657.81;5129663;27;20027;-80
2022/10/15 05:22:39;;;;;;;0.10;0.10;;;;;;;14.53;76.41;100664.00;5121276;27;20035;-79
2022/10/15 05:25:06;;;;;;;2.22;1.80;;;;;;;14.56;76.33;100655.84;5131535;27;20106;-78
2022/10/15 05:27:32;;;;;;;0.30;0.30;;;;;;;14.59;76.19;100654.00;5117883;27;20070;-79
2022/10/15 05:29:58;;;;;;;0.10;0.10;;;;;;;14.64;76.39;100652.91;5132639;27;20748;-78
2022/10/15 05:32:24;;;;;;;0.43;0.43;;;;;;;14.65;76.13;100653.81;5122162;27;20057;-79
2022/10/15 05:34:50;;;;;;;1.90;1.75;;;;;;;14.65;76.68;100646.66;5125207;27;20094;-79
2022/10/15 05:37:19;;;;;;;0.93;0.90;;;;;;;14.74;76.36;100647.22;5127541;27;20543;-79
2022/10/15 05:39:45;;;;;;;8.70;1.98;;;;;;;14.77;76.01;100645.31;5127042;27;20523;-79
2022/10/15 05:42:12;;;;;;;0.45;0.45;;;;;;;14.78;76.06;100644.38;5130490;27;20057;-79
2022/10/15 05:44:38;;;;;;;0.30;0.30;;;;;;;14.75;76.51;100636.50;5127402;27;20034;-79
2022/10/15 05:47:04;;;;;;;0.35;0.22;;;;;;;14.80;76.20;100631.84;5134086;27;20434;-79
2022/10/15 05:49:30;;;;;;;0.50;0.50;;;;;;;14.82;76.14;100619.31;5122653;27;20114;-79
2022/10/15 05:51:56;;;;;;;1.70;1.60;;;;;;;14.84;76.07;100627.25;5133102;27;20038;-79
2022/10/15 05:54:22;;;;;;;0.93;0.93;;;;;;;14.82;76.34;100629.97;5133183;27;20091;-79
2022/10/15 05:56:48;;;;;;;1.83;1.80;;;;;;;14.82;76.16;100645.97;5123019;27;20035;-79
2022/10/15 05:59:14;;;;;;;1.25;0.68;;;;;;;14.82;76.09;100648.66;5124416;27;20081;-78
2022/10/15 06:01:40;;;;;;;0.55;0.55;;;;;;;14.83;75.92;100654.88;5128633;27;20056;-79
2022/10/15 06:04:06;;;;;;;1.60;0.98;;;;;;;14.82;76.08;100645.13;5132692;27;20031;-79
2022/10/15 06:06:32;;;;;;;0.30;0.30;;;;;;;14.81;75.90;100649.56;5123875;27;20034;-79
2022/10/15 06:09:00;;;;;;;2.78;2.58;;;;;;;14.83;76.14;100644.19;5118254;27;20026;-80
2022/10/15 06:11:26;;;;;;;2.63;0.35;;;;;;;14.85;76.25;100637.88;5120017;27;20085;-80
2022/10/15 06:13:52;;;;;;;0.50;0.50;;;;;;;14.86;76.29;100649.41;5130946;27;20035;-79
2022/10/15 06:16:18;;;;;;;0.80;0.80;;;;;;;14.90;76.03;100637.66;5129031;27;20106;-79
2022/10/15 06:18:45;;;;;;;0.95;0.82;;;;;;;14.88;76.28;100637.72;5126695;27;20488;-78
2022/10/15 06:21:11;;;;;;;0.60;0.60;;;;;;;14.93;76.41;100640.22;5123987;27;20031;-79
2022/10/15 06:23:37;;;;;;;1.73;0.57;;;;;;;14.93;76.49;100631.31;5130237;28;20027;-80
2022/10/15 06:26:06;;;;;;;1.10;1.00;;;;;;;14.94;76.66;100627.72;5132827;28;20055;-79
2022/10/15 06:28:33;;;;;;;0.98;0.93;;;;;;;14.95;76.77;100629.47;5133863;28;20396;-79
2022/10/15 06:30:59;;;;;;;1.27;1.27;;;;;;;15.03;76.34;100620.22;5132650;27;20030;-79
2022/10/15 06:33:29;;;;;;;0.38;0.38;;;;;;;15.10;76.40;100612.81;5130379;28;20102;-79
2022/10/15 06:36:04;;;;;;;0.32;0.32;;;;;;;15.12;76.24;100621.63;5117526;28;20023;-79
2022/10/15 06:38:30;;;;;;;0.20;0.20;;;;;;;15.13;76.21;100634.03;5126006;28;20027;-80
2022/10/15 06:40:57;;;;;;;0.82;0.82;;;;;;;15.14;76.29;100635.78;5124285;27;20138;-79
2022/10/15 06:43:23;;;;;;;3.50;2.70;;;;;;;15.18;76.29;100636.53;5132092;28;20521;-77
2022/10/15 06:45:50;;;;;;;0.22;0.22;;;;;;;15.20;76.30;100640.84;5127544;28;20027;-78
2022/10/15 06:48:16;;;;;;;2.92;2.47;;;;;;;15.24;76.19;100640.72;5131057;28;20043;-78
2022/10/15 06:50:43;;;;;;;1.23;1.15;;;;;;;15.28;76.30;100637.00;5119031;27;20041;-78
2022/10/15 06:53:09;;;;;;;0.55;0.55;;;;;;;15.28;76.30;100640.53;5123684;28;20076;-77
2022/10/15 06:55:35;;;;;;;1.25;1.20;;;;;;;15.29;76.51;100638.72;5124889;28;20037;-78
2022/10/15 06:58:01;;;;;;;0.10;0.10;;;;;;;15.30;76.28;100653.78;5126085;28;20042;-78
2022/10/15 07:00:28;;;;;;;0.85;0.85;;;;;;;15.29;76.58;100644.03;5128001;28;20106;-78
2022/10/15 07:02:54;;;;;;;2.00;1.90;;;;;;;15.34;76.26;100648.25;5125177;28;20027;-79
2022/10/15 07:05:20;;;;;;;5.03;3.15;;;;;;;15.39;76.25;100644.53;5126941;28;20912;-79
2022/10/15 07:07:55;;;;;;;0.75;0.75;;;;;;;15.45;76.00;100638.91;5126404;28;20043;-79
2022/10/15 07:10:22;;;;;;;0.50;0.50;;;;;;;15.42;75.84;100639.06;5124683;28;20039;-78
2022/10/15 07:12:48;;;;;;;4.57;3.10;;;;;;;15.40;76.03;100651.59;5127419;27;20035;-82
2022/10/15 07:15:15;;;;;;;0.95;0.95;;;;;;;15.35;75.73;100651.78;5132285;27;20523;-82
2022/10/15 07:17:51;;;;;;;1.85;1.75;;;;;;;15.34;75.64;100650.09;5136997;27;20091;-81
2022/10/15 07:20:18;;;;;;;2.72;1.30;;;;;;;15.34;75.78;100652.75;5126967;27;20096;-79
2022/10/15 07:22:45;;;;;;;3.90;3.58;;;;;;;15.28;75.83;100647.69;5126546;27;20042;-80
2022/10/15 07:25:11;;;;;;;2.30;1.95;;;;;;;15.33;76.21;100637.66;5123373;27;20034;-81
2022/10/15 07:27:38;;;;;;;1.75;1.65;;;;;;;15.37;76.16;100641.94;5123600;27;20501;-80
2022/10/15 07:30:06;;;;;;;2.15;1.75;;;;;;;15.43;76.09;100636.31;5129587;27;20042;-80
2022/10/15 07:32:33;;;;;;;0.52;0.52;;;;;;;15.46;75.72;100636.16;5130212;27;20023;-80
2022/10/15 07:34:59;;;;;;;1.50;1.30;;;;;;;15.48;75.68;100628.13;5131081;27;20023;-78
2022/10/15 07:37:25;;;;;;;0.30;0.30;;;;;;;15.50;75.89;100620.88;5125431;27;20072;-81
2022/10/15 07:39:51;;;;;;;1.67;1.55;;;;;;;15.55;75.80;100612.69;5128426;27;20031;-83
2022/10/15 07:42:19;;;;;;;5.78;1.15;;;;;;;15.60;75.51;100616.91;5134264;27;20038;-82
2022/10/15 07:44:45;;;;;;;2.90;1.77;;;;;;;15.57;75.40;100621.50;5132010;27;20035;-83
2022/10/15 07:47:11;;;;;;;0.98;0.98;;;;;;;15.60;75.75;100616.91;5133263;27;20445;-83
2022/10/15 07:49:37;;;;;;;0.75;0.75;;;;;;;15.68;75.62;100608.53;5130487;27;20557;-81
2022/10/15 07:52:03;;;;;;;0.10;0.10;;;;;;;15.71;75.29;100615.53;5125619;27;20080;-82
2022/10/15 07:54:32;;;;;;;0.20;0.20;;;;;;;15.74;75.25;100629.63;5129987;27;20113;-82
2022/10/15 07:56:58;;;;;;;4.80;2.72;;;;;;;15.78;75.41;100625.88;5128190;27;20035;-81
2022/10/15 07:59:24;;;;;;;0.50;0.50;;;;;;;15.82;75.29;100622.16;5121422;27;20063;-79
2022/10/15 08:01:51;;;;;;;0.10;0.10;;;;;;;15.90;75.32;100618.25;5125811;27;20046;-78
2022/10/15 08:04:19;;;;;;;0.57;0.57;;;;;;;15.88;74.95;100604.97;5126887;27;20046;-80
2022/10/15 08:06:45;;;;;;;0.28;0.28;;;;;;;15.90;74.89;100600.44;5125254;27;20030;-78
2022/10/15 08:09:11;;;;;;;1.35;1.25;;;;;;;15.96;74.95;100601.94;5126660;27;20389;-78
2022/10/15 08:11:38;;;;;;;0.98;0.90;;;;;;;15.99;74.60;100597.34;5126709;27;20028;-79
2022/10/15 08:14:04;;;;;;;1.00;1.00;;;;;;;16.03;74.52;100598.06;5130764;27;20155;-77
2022/10/15 08:16:30;;;;;;;0.20;0.20;;;;;;;16.04;74.29;100590.91;5130618;27;20027;-78
2022/10/15 08:18:58;;;;;;;0.32;0.32;;;;;;;16.07;74.48;100593.44;5128128;27;20076;-78
2022/10/15 08:21:25;;;;;;;0.47;0.47;;;;;;;16.13;74.50;100587.81;5125333;27;20148;-76
2022/10/15 08:23:51;;;;;;;0.22;0.22;;;;;;;16.14;74.14;100587.72;5117575;27;20036;-77
2022/10/15 08:26:17;;;;;;;0.82;0.82;;;;;;;16.23;74.33;100580.22;5118199;27;20068;-77
2022/10/15 08:28:44;;;;;;;0.85;0.85;;;;;;;16.27;74.16;100584.47;5116719;27;20047;-77
2022/10/15 08:31:10;;;;;;;0.65;0.65;;;;;;;16.32;74.21;100582.44;5125737;27;20499;-77
2022/10/15 08:33:40;;;;;;;0.60;0.60;;;;;;;16.36;74.11;100578.66;5129986;27;20034;-77
2022/10/15 08:36:06;;;;;;;0.10;0.10;;;;;;;16.40;73.72;100577.59;5135121;27;20080;-77
2022/10/15 08:38:33;;;;;;;0.20;0.20;;;;;;;16.44;73.62;100576.50;5123934;27;20126;-78
2022/10/15 08:41:01;;;;;;;0.15;0.15;;;;;;;16.50;73.95;100564.66;5130099;27;20031;-78
2022/10/15 08:43:38;;;;;;;3.30;1.38;;;;;;;16.63;73.96;100564.91;5133489;27;20023;-77
2022/10/15 08:46:11;;;;;;;0.10;0.10;;;;;;;16.75;73.79;100572.31;5117850;27;20561;-78
2022/10/15 08:48:43;;;;;;;0.10;0.10;;;;;;;16.78;73.07;100564.09;5134322;27;20397;-78
2022/10/15 08:51:13;;;;;;;1.88;1.80;;;;;;;16.87;72.67;100561.94;5134534;27;20027;-77
2022/10/15 08:53:44;;;;;;;0.60;0.60;;;;;;;16.90;72.53;100561.78;5125078;27;20410;-79
2022/10/15 08:56:16;;;;;;;0.98;0.98;;;;;;;16.96;72.19;100561.50;5129260;27;20500;-78
2022/10/15 09:01:39;;;;;;;0.17;0.17;;;;;;;17.14;71.74;100565.88;5132706;27;120951;-78
2022/10/15 09:04:18;;;;;;;1.08;1.00;;;;;;;17.17;71.18;100569.34;5147286;27;20030;-78
2022/10/15 09:06:45;;;;;;;0.60;0.60;;;;;;;17.14;71.02;100571.22;5137433;27;20035;-78
2022/10/15 09:14:30;;;;;;;0.68;0.68;;;;;;;17.03;70.71;100588.81;5087373;27;20644;-77
2022/10/15 09:17:05;;;;;;;0.10;0.10;;;;;;;16.93;70.99;100575.03;5049562;28;20124;-78
2022/10/15 09:19:33;;;;;;;0.22;0.22;;;;;;;16.85;71.05;100564.69;5049322;28;20029;-78
2022/10/15 09:22:01;;;;;;;0.20;0.20;;;;;;;16.82;71.21;100560.34;5047485;28;20021;-78
2022/10/15 09:24:29;;;;;;;0.22;0.22;;;;;;;16.78;72.04;100561.44;5049486;28;20029;-77
2022/10/15 09:30:19;;;;;;;0.10;0.10;;;;;;;16.72;72.59;100552.88;5085393;27;20121;-77
2022/10/15 09:32:50;;;;;;;;;;;;;;;16.75;72.65;100556.25;5049728;28;20048;-77
2022/10/15 09:38:51;;;;;;;0.08;0.08;;;;;;;16.69;73.06;100553.88;5060939;27;20152;-77
2022/10/15 09:41:44;;;;;;;0.20;0.20;;;;;;;16.67;73.61;100537.03;5022829;28;20038;-77
2022/10/15 09:44:13;;;;;;;0.47;0.47;;;;;;;16.65;74.08;100536.28;5018046;28;20076;-76
2022/10/15 09:46:45;;;;;;;0.25;0.25;;;;;;;16.71;74.24;100540.44;5021139;28;20493;-78
2022/10/15 09:49:18;;;;;;;0.50;0.50;;;;;;;16.74;74.61;100540.28;5029320;28;20025;-76
2022/10/15 09:52:06;;;;;;;0.45;0.45;;;;;;;16.82;74.39;100540.75;5027715;28;20021;-77
2022/10/15 09:54:44;;;;;;;0.57;0.57;;;;;;;16.85;74.09;100537.03;5030363;28;20494;-77
2022/10/15 09:57:14;;;;;;;0.40;0.40;;;;;;;16.82;74.52;100533.59;5015871;28;20438;-78
2022/10/15 09:59:53;;;;;;;0.32;0.32;;;;;;;16.83;74.60;100529.09;5027017;28;20087;-78
2022/10/15 10:02:21;;;;;;;0.20;0.20;;;;;;;16.82;74.86;100528.25;5028803;28;20097;-77
2022/10/15 10:04:47;;;;;;;0.28;0.28;;;;;;;16.85;75.06;100526.34;5026712;28;20025;-77
2022/10/15 10:10:52;;;;;;;0.17;0.17;;;;;;;16.92;75.05;100528.69;5107027;27;20609;-78
2022/10/15 10:13:24;;;;;;;1.13;0.55;;;;;;;16.96;75.01;100518.69;5089488;28;20154;-77
2022/10/15 10:15:53;;;;;;;0.22;0.22;;;;;;;16.93;75.15;100525.03;5094578;28;20468;-77
2022/10/15 10:18:22;;;;;;;0.50;0.35;;;;;;;16.96;74.94;100529.38;5103392;28;20028;-77
2022/10/15 10:20:58;;;;;;;0.13;0.13;;;;;;;17.02;74.84;100518.34;5093942;28;20040;-78
2022/10/15 10:23:38;;;;;;;0.30;0.30;;;;;;;17.00;74.73;100517.56;5099219;28;20024;-78
2022/10/15 10:26:07;;;;;;;0.45;0.45;;;;;;;16.95;75.11;100522.31;5098482;28;20028;-78
2022/10/15 10:28:49;;;;;;;0.10;0.10;;;;;;;16.99;74.62;100523.88;5096064;28;20549;-76
2022/10/15 10:31:15;;;;;;;0.20;0.20;;;;;;;16.93;75.14;100514.31;5094551;28;20033;-78
2022/10/15 10:39:25;;;;;;;0.13;0.13;;;;;;;16.95;75.30;100519.63;5119275;27;20211;-76
2022/10/15 10:41:59;;;;;;;3.75;1.75;;;;;;;16.91;75.52;100528.69;5076847;28;20386;-77
2022/10/15 10:44:35;;;;;;;0.10;0.10;;;;;;;16.96;75.29;100524.03;5077333;28;20085;-77
2022/10/15 10:47:18;;;;;;;0.10;0.10;;;;;;;17.02;75.50;100522.84;5083098;28;20021;-77
2022/10/15 10:49:48;;;;;;;0.40;0.40;;;;;;;17.00;75.40;100516.69;5071480;28;20035;-78
2022/10/15 10:52:35;;;;;;;0.10;0.10;;;;;;;17.08;75.48;100509.97;5078145;28;20028;-78
2022/10/15 11:02:56;;;;;;;0.52;0.52;;;;;;;17.18;75.47;100502.34;5145356;27;124547;-76
2022/10/15 11:05:26;;;;;;;0.10;0.10;;;;;;;17.21;75.50;100506.66;5122841;28;20032;-78
2022/10/15 11:08:06;;;;;;;0.20;0.20;;;;;;;17.25;75.33;100508.25;5121851;28;20035;-77
2022/10/15 11:10:46;;;;;;;0.20;0.20;;;;;;;17.23;75.45;100500.28;5119978;28;20028;-77
2022/10/15 11:13:52;;;;;;;0.10;0.10;;;;;;;17.28;75.26;100492.00;5122057;27;20038;-78
2022/10/15 11:16:33;;;;;;;0.20;0.20;;;;;;;17.27;75.49;100490.28;5120358;28;20042;-78
2022/10/15 11:22:27;;;;;;;0.10;0.10;;;;;;;17.36;75.57;100495.16;5112678;27;20133;-80
2022/10/15 11:25:13;;;;;;;0.30;0.30;;;;;;;17.34;75.86;100490.81;5087213;28;20043;-79
2022/10/15 11:28:07;;;;;;;0.10;0.10;;;;;;;17.36;75.68;100494.25;5071523;28;20032;-79
2022/10/15 11:30:58;;;;;;;0.20;0.20;;;;;;;17.37;75.75;100496.00;5088494;28;20039;-78
2022/10/15 11:36:37;;;;;;;0.35;0.35;;;;;;;17.37;75.65;100490.66;5156141;27;20123;-78
2022/10/15 11:39:39;;;;;;;0.43;0.43;;;;;;;17.40;76.03;100491.34;5108268;28;20040;-78
2022/10/15 11:42:32;;;;;;;0.17;0.17;;;;;;;17.44;75.68;100484.88;5103859;28;20040;-79
2022/10/15 11:48:16;;;;;;;0.52;0.32;;;;;;;17.49;76.60;100481.94;5116294;27;20372;-82
2022/10/15 11:50:50;;;;;;;0.73;0.73;;;;;;;17.46;76.33;100491.00;5086446;28;20032;-82
2022/10/15 11:53:49;;;;;;;0.70;0.70;;;;;;;17.55;76.26;100488.78;5085070;28;20040;-81
2022/10/15 11:56:37;;;;;;;0.93;0.65;;;;;;;17.49;76.69;100486.44;5075532;28;20063;-80
2022/10/15 11:59:30;;;;;;;0.20;0.20;;;;;;;17.54;76.66;100484.38;5071908;28;20041;-78
2022/10/15 12:02:05;;;;;;;0.20;0.20;;;;;;;17.59;76.61;100487.66;5083214;28;20036;-79
2022/10/15 12:04:46;;;;;;;0.10;0.10;;;;;;;17.64;76.19;100493.63;5080951;28;20518;-82
2022/10/15 12:07:19;;;;;;;0.20;0.15;;;;;;;17.66;76.66;100486.38;5081495;28;20086;-81
2022/10/15 12:09:47;;;;;;;;;;;;;;;17.77;76.50;100489.31;5081115;28;20538;-80
2022/10/15 12:12:27;;;;;;;1.83;1.73;;;;;;;17.75;76.96;100491.22;5086733;28;20384;-81
2022/10/15 12:15:27;;;;;;;4.38;0.55;;;;;;;17.82;76.39;100498.91;5085981;28;20028;-81
2022/10/15 12:18:22;;;;;;;0.30;0.30;;;;;;;17.71;76.04;100502.22;5079845;28;20039;-81
2022/10/15 12:20:48;;;;;;;1.38;0.57;;;;;;;17.60;76.58;100497.44;5090405;28;20024;-81
2022/10/15 12:26:31;;;;;;;0.10;0.10;;;;;;;17.60;77.57;100498.28;5122996;27;20657;-81
2022/10/15 12:28:59;;;;;;;0.10;0.10;;;;;;;17.52;77.53;100518.41;5094208;28;20028;-79
2022/10/15 12:31:47;;;;;;;0.10;0.10;;;;;;;17.56;77.36;100512.81;5085918;28;20020;-80
2022/10/15 12:37:22;;;;;;;0.10;0.10;;;;;;;17.53;77.50;100514.78;5143969;27;166660;-79
2022/10/15 12:39:55;;;;;;;0.55;0.25;;;;;;;17.59;77.47;100517.13;5120132;28;20038;-79
2022/10/15 12:45:01;;;;;;;0.57;0.57;;;;;;;17.70;77.71;100512.03;5167934;27;83088;-81
2022/10/15 12:47:52;;;;;;;0.63;0.50;;;;;;;17.78;77.58;100512.50;5135153;27;20031;-80
2022/10/15 12:50:22;;;;;;;1.20;0.30;;;;;;;17.79;77.45;100508.88;5145862;27;20096;-80